createdAt,value
2022-12-18T00:01:03.335Z,97342.16
2022-12-18T00:03:29.795Z,97348.38
2022-12-18T04:07:40.743Z,97481.09
2022-12-18T04:10:07.115Z,97482.03
2022-12-18T04:12:33.479Z,97493.25
2022-12-18T04:14:59.853Z,97487.34
2022-12-18T04:17:26.219Z,97484.34
2022-12-18T04:19:52.583Z,97492.47
2022-12-18T04:22:18.942Z,97496.06
2022-12-18T04:24:45.321Z,97494.66
2022-12-18T04:27:11.684Z,97492.47
2022-12-18T04:29:38.055Z,97499.03
2022-12-18T04:32:04.423Z,97500.44
2022-12-18T04:34:30.805Z,97507.16
2022-12-18T04:36:57.658Z,97506.72
2022-12-18T04:39:24.082Z,97500.44
2022-12-18T04:41:51.142Z,97498.25
2022-12-18T04:44:17.603Z,97505.59
2022-12-18T04:46:44.058Z,97506.38
2022-12-18T04:49:10.523Z,97515.13
2022-12-18T04:51:36.891Z,97516.53
2022-12-18T04:54:03.300Z,97511.06
2022-12-18T04:56:29.681Z,97512.63
2022-12-18T04:58:56.066Z,97512.31
2022-12-18T05:01:22.511Z,97513.59
2022-12-18T05:03:49.025Z,97512.31
2022-12-18T05:06:15.422Z,97522.72
2022-12-18T05:08:41.774Z,97519.59
2022-12-18T05:11:08.224Z,97523.88
2022-12-18T05:13:34.598Z,97524.19
2022-12-18T05:16:00.997Z,97516.06
2022-12-18T05:18:27.459Z,97522.91
2022-12-18T05:20:53.838Z,97528.22
2022-12-18T05:23:20.216Z,97524.28
2022-12-18T05:25:46.610Z,97524.66
2022-12-18T05:28:12.970Z,97522.31
2022-12-18T05:30:39.348Z,97525.09
2022-12-18T05:33:05.738Z,97521.63
2022-12-18T05:35:32.133Z,97529.78
2022-12-18T05:37:58.491Z,97528.19
2022-12-18T05:40:25.242Z,97532.13
2022-12-18T05:42:51.638Z,97525.25
2022-12-18T05:45:18.030Z,97524.50
2022-12-18T05:47:44.392Z,97527.88
2022-12-18T05:50:10.748Z,97530.38
2022-12-18T05:52:37.191Z,97533.22
2022-12-18T05:55:03.558Z,97533.72
2022-12-18T05:57:29.941Z,97533.53
2022-12-18T05:59:56.294Z,97535.28
2022-12-18T06:02:22.784Z,97538.50
2022-12-18T06:04:49.262Z,97540.22
2022-12-18T06:07:15.653Z,97545.19
2022-12-18T06:09:42.012Z,97538.50
2022-12-18T06:12:08.385Z,97549.16
2022-12-18T06:14:34.790Z,97553.38
2022-12-18T06:17:01.174Z,97553.78
2022-12-18T06:19:27.554Z,97554.78
2022-12-18T06:21:53.924Z,97564.63
2022-12-18T06:24:20.295Z,97563.84
2022-12-18T06:26:46.650Z,97563.84
2022-12-18T06:29:13.006Z,97569.44
2022-12-18T06:31:39.409Z,97570.09
2022-12-18T06:34:05.820Z,97572.28
2022-12-18T06:36:32.206Z,97574.31
2022-12-18T06:38:58.570Z,97577.13
2022-12-18T06:41:24.948Z,97580.56
2022-12-18T06:43:52.830Z,97589.88
2022-12-18T06:46:20.995Z,97588.69
2022-12-18T06:48:47.369Z,97584.78
2022-12-18T06:51:13.737Z,97595.56
2022-12-18T06:53:40.542Z,97600.72
2022-12-18T06:56:10.164Z,97600.25
2022-12-18T06:58:37.181Z,97606.97
2022-12-18T07:01:03.601Z,97608.19
2022-12-18T07:03:30.005Z,97606.13
2022-12-18T07:05:56.369Z,97617.94
2022-12-18T07:08:22.755Z,97619.59
2022-12-18T07:10:52.915Z,97614.75
2022-12-18T07:13:22.375Z,97613.38
2022-12-18T07:15:48.759Z,97621.19
2022-12-18T07:18:15.122Z,97622.41
2022-12-18T07:20:41.742Z,97628.34
2022-12-18T07:23:08.100Z,97624.47
2022-12-18T07:25:34.478Z,97628.06
2022-12-18T07:28:00.848Z,97629.81
2022-12-18T07:30:27.222Z,97632.94
2022-12-18T07:32:53.601Z,97634.94
2022-12-18T07:35:24.720Z,97641.16
2022-12-18T07:37:51.626Z,97632.91
2022-12-18T07:40:17.996Z,97643.84
2022-12-18T07:42:44.406Z,97641.19
2022-12-18T07:45:10.786Z,97645.88
2022-12-18T07:47:37.175Z,97646.81
2022-12-18T07:50:03.558Z,97645.25
2022-12-18T07:52:29.923Z,97650.09
2022-12-18T07:54:56.303Z,97657.28
2022-12-18T07:57:49.041Z,97662.59
2022-12-18T08:00:09.011Z,97659.16
2022-12-18T08:02:35.407Z,97659.81
2022-12-18T08:05:01.920Z,97659.31
2022-12-18T08:07:28.275Z,97666.84
2022-12-18T08:09:54.657Z,97662.59
2022-12-18T08:12:21.030Z,97669.34
2022-12-18T08:14:47.411Z,97666.84
2022-12-18T08:17:13.787Z,97670.13
2022-12-18T08:19:40.173Z,97664.81
2022-12-18T08:22:06.545Z,97665.31
2022-12-18T08:24:32.930Z,97666.53
2022-12-18T08:27:21.256Z,97666.25
2022-12-18T08:29:45.663Z,97668.91
2022-12-18T08:32:12.063Z,97673.09
2022-12-18T08:34:38.466Z,97665.25
2022-12-18T08:37:04.854Z,97666.84
2022-12-18T08:39:31.216Z,97658.13
2022-12-18T08:41:57.612Z,97668.25
2022-12-18T08:44:23.971Z,97667.03
2022-12-18T08:46:50.344Z,97658.44
2022-12-18T08:49:16.710Z,97661.09
2022-12-18T08:51:43.063Z,97655.13
2022-12-18T08:54:09.430Z,97655.28
2022-12-18T08:56:35.809Z,97670.75
2022-12-18T08:59:02.195Z,97666.53
2022-12-18T09:01:28.669Z,97671.72
2022-12-18T09:03:55.134Z,97668.91
2022-12-18T09:06:21.518Z,97672.00
2022-12-18T09:08:47.884Z,97669.84
2022-12-18T09:11:14.246Z,97675.50
2022-12-18T09:13:40.997Z,97674.38
2022-12-18T09:16:07.626Z,97673.00
2022-12-18T09:18:33.991Z,97670.19
2022-12-18T09:21:00.355Z,97680.31
2022-12-18T09:23:26.725Z,97683.31
2022-12-18T09:25:53.084Z,97688.94
2022-12-18T09:28:19.470Z,97675.34
2022-12-18T09:30:45.894Z,97683.50
2022-12-18T09:33:12.298Z,97680.66
2022-12-18T09:35:38.730Z,97676.44
2022-12-18T09:38:05.098Z,97680.66
2022-12-18T09:40:31.474Z,97684.91
2022-12-18T09:42:57.855Z,97676.97
2022-12-18T09:45:24.222Z,97679.75
2022-12-18T09:47:50.619Z,97690.50
2022-12-18T09:50:17.531Z,97693.66
2022-12-18T09:52:43.993Z,97693.81
2022-12-18T09:55:10.373Z,97695.56
2022-12-18T09:57:36.739Z,97687.75
2022-12-18T10:00:03.131Z,97685.81
2022-12-18T10:02:29.660Z,97690.81
2022-12-18T10:04:56.129Z,97696.94
2022-12-18T10:07:22.500Z,97695.63
2022-12-18T10:09:48.887Z,97687.66
2022-12-18T10:12:15.259Z,97677.22
2022-12-18T10:14:41.636Z,97685.03
2022-12-18T10:17:07.999Z,97689.13
2022-12-18T10:19:34.382Z,97682.88
2022-12-18T10:22:00.779Z,97679.72
2022-12-18T10:24:27.174Z,97665.50
2022-12-18T10:26:53.542Z,97657.72
2022-12-18T10:29:19.942Z,97653.66
2022-12-18T10:31:46.315Z,97660.69
2022-12-18T10:34:12.699Z,97650.34
2022-12-18T10:36:39.090Z,97654.09
2022-12-18T10:39:05.527Z,97664.28
2022-12-18T10:41:31.931Z,97665.06
2022-12-18T10:43:58.299Z,97657.88
2022-12-18T10:46:25.254Z,97665.38
2022-12-18T10:48:51.685Z,97658.50
2022-12-18T10:51:18.068Z,97654.72
2022-12-18T10:53:44.579Z,97655.03
2022-12-18T10:56:11.005Z,97660.50
2022-12-18T10:58:37.385Z,97658.97
2022-12-18T11:01:03.789Z,97659.16
2022-12-18T11:03:30.258Z,97656.91
2022-12-18T11:05:56.660Z,97658.91
2022-12-18T11:08:23.063Z,97656.41
2022-12-18T11:10:49.454Z,97650.47
2022-12-18T11:13:15.831Z,97652.53
2022-12-18T11:15:42.257Z,97652.25
2022-12-18T11:18:08.721Z,97652.56
2022-12-18T11:20:35.087Z,97650.06
2022-12-18T11:23:01.458Z,97649.91
2022-12-18T11:25:32.304Z,97651.94
2022-12-18T11:27:59.994Z,97648.47
2022-12-18T11:30:26.738Z,97645.53
2022-12-18T11:32:53.124Z,97647.22
2022-12-18T11:35:19.502Z,97638.78
2022-12-18T11:37:45.879Z,97637.88
2022-12-18T11:40:12.248Z,97635.84
2022-12-18T11:42:38.642Z,97639.00
2022-12-18T11:45:05.027Z,97635.09
2022-12-18T11:47:31.404Z,97630.88
2022-12-18T11:49:57.779Z,97634.31
2022-12-18T11:52:24.143Z,97615.84
2022-12-18T11:54:50.525Z,97613.97
2022-12-18T11:57:16.910Z,97613.63
2022-12-18T11:59:43.301Z,97621.16
2022-12-18T12:02:09.803Z,97611.75
2022-12-18T12:04:36.316Z,97608.81
2022-12-18T12:07:03.423Z,97605.06
2022-12-18T12:09:29.976Z,97599.41
2022-12-18T12:11:56.349Z,97591.78
2022-12-18T12:14:22.746Z,97590.06
2022-12-18T12:16:49.185Z,97592.38
2022-12-18T12:19:15.621Z,97601.63
2022-12-18T12:21:42.006Z,97594.09
2022-12-18T12:24:08.405Z,97597.53
2022-12-18T12:26:34.783Z,97591.75
2022-12-18T12:29:01.160Z,97582.38
2022-12-18T12:31:28.714Z,97576.75
2022-12-18T12:33:55.456Z,97573.94
2022-12-18T12:36:21.839Z,97571.13
2022-12-18T12:38:51.852Z,97574.72
2022-12-18T12:41:18.835Z,97572.69
2022-12-18T12:43:50.566Z,97574.09
2022-12-18T12:46:31.616Z,97564.09
2022-12-18T12:48:58.009Z,97567.22
2022-12-18T12:51:25.042Z,97556.59
2022-12-18T12:53:51.422Z,97563.59
2022-12-18T12:56:18.180Z,97561.75
2022-12-18T12:58:45.409Z,97562.53
2022-12-18T13:01:12.491Z,97564.56
2022-12-18T13:03:38.930Z,97563.94
2022-12-18T13:06:06.519Z,97555.19
2022-12-18T13:08:35.033Z,97555.00
2022-12-18T13:11:02.321Z,97562.69
2022-12-18T13:13:30.075Z,97558.00
2022-12-18T13:15:56.504Z,97559.25
2022-12-18T13:18:22.910Z,97546.72
2022-12-18T13:20:55.361Z,97548.47
2022-12-18T13:23:24.832Z,97552.22
2022-12-18T13:25:51.219Z,97540.78
2022-12-18T13:28:17.610Z,97542.34
2022-12-18T13:30:44.004Z,97543.47
2022-12-18T13:33:10.407Z,97531.41
2022-12-18T13:35:36.883Z,97541.09
2022-12-18T13:38:03.290Z,97543.75
2022-12-18T13:40:29.679Z,97541.44
2022-12-18T13:42:56.078Z,97538.44
2022-12-18T13:45:22.534Z,97535.94
2022-12-18T13:47:49.059Z,97538.00
2022-12-18T13:50:15.470Z,97540.31
2022-12-18T13:52:41.919Z,97532.84
2022-12-18T13:55:08.330Z,97532.81
2022-12-18T13:57:34.735Z,97517.34
2022-12-18T14:00:01.699Z,97530.78
2022-12-18T14:02:28.698Z,97536.72
2022-12-18T14:04:55.566Z,97529.69
2022-12-18T14:07:21.978Z,97528.13
2022-12-18T14:09:49.326Z,97532.03
2022-12-18T14:12:15.730Z,97529.69
2022-12-18T14:14:42.318Z,97529.41
2022-12-18T14:17:08.821Z,97530.03
2022-12-18T14:19:35.544Z,97537.22
2022-12-18T14:22:01.971Z,97528.31
2022-12-18T14:24:28.351Z,97526.88
2022-12-18T14:26:54.741Z,97525.94
2022-12-18T14:29:21.552Z,97540.31
2022-12-18T14:31:48.175Z,97542.69
2022-12-18T14:34:16.114Z,97542.22
2022-12-18T14:36:42.518Z,97551.44
2022-12-18T14:39:08.914Z,97545.50
2022-12-18T14:41:35.319Z,97543.16
2022-12-18T14:44:01.704Z,97548.28
2022-12-18T14:46:28.189Z,97547.38
2022-12-18T14:48:55.242Z,97547.50
2022-12-18T14:51:21.637Z,97545.50
2022-12-18T14:53:54.089Z,97547.50
2022-12-18T14:56:21.360Z,97539.41
2022-12-18T14:58:47.877Z,97537.53
2022-12-18T15:01:14.403Z,97539.06
2022-12-18T15:03:41.095Z,97527.97
2022-12-18T15:06:07.769Z,97533.75
2022-12-18T15:08:34.166Z,97532.50
2022-12-18T15:11:01.093Z,97544.06
2022-12-18T15:13:28.271Z,97552.69
2022-12-18T15:15:54.683Z,97556.88
2022-12-18T15:18:21.091Z,97542.22
2022-12-18T15:20:47.511Z,97546.72
2022-12-18T15:23:13.874Z,97552.22
2022-12-18T15:25:40.243Z,97551.13
2022-12-18T15:28:06.638Z,97557.66
2022-12-18T15:30:33.058Z,97556.13
2022-12-18T15:32:59.443Z,97558.94
2022-12-18T15:35:25.835Z,97564.84
2022-12-18T15:37:52.235Z,97561.91
2022-12-18T15:40:18.616Z,97559.84
2022-12-18T15:42:46.423Z,97556.00
2022-12-18T15:45:12.818Z,97560.50
2022-12-18T15:47:39.199Z,97551.25
2022-12-18T15:50:05.578Z,97558.16
2022-12-18T15:52:31.979Z,97561.75
2022-12-18T15:54:58.359Z,97547.19
2022-12-18T15:57:24.783Z,97551.44
2022-12-18T15:59:51.197Z,97550.97
2022-12-18T16:02:17.768Z,97560.81
2022-12-18T16:04:44.238Z,97555.03
2022-12-18T16:07:17.536Z,97555.31
2022-12-18T16:09:51.066Z,97547.81
2022-12-18T16:12:17.466Z,97551.59
2022-12-18T16:14:43.938Z,97560.50
2022-12-18T16:17:10.362Z,97557.53
2022-12-18T16:19:36.735Z,97551.41
2022-12-18T16:22:03.115Z,97554.09
2022-12-18T16:24:29.518Z,97551.88
2022-12-18T16:26:55.919Z,97547.38
2022-12-18T16:29:22.309Z,97550.97
2022-12-18T16:31:48.702Z,97555.97
2022-12-18T16:34:15.094Z,97559.72
2022-12-18T16:36:41.487Z,97552.97
2022-12-18T16:39:07.863Z,97554.72
2022-12-18T16:41:34.246Z,97556.25
2022-12-18T16:44:00.623Z,97561.91
2022-12-18T16:46:27.078Z,97566.28
2022-12-18T16:48:53.544Z,97559.41
2022-12-18T16:51:19.923Z,97555.03
2022-12-18T16:53:46.335Z,97557.69
2022-12-18T16:56:12.756Z,97551.28
2022-12-18T16:58:39.140Z,97555.16
2022-12-18T17:01:07.421Z,97549.56
2022-12-18T17:03:33.861Z,97555.03
2022-12-18T17:06:00.279Z,97559.38
2022-12-18T17:08:26.648Z,97553.28
2022-12-18T17:10:53.034Z,97542.81
2022-12-18T17:13:25.444Z,97549.53
2022-12-18T17:15:52.314Z,97548.13
2022-12-18T17:18:18.714Z,97545.66
2022-12-18T17:20:45.095Z,97544.06
2022-12-18T17:23:11.487Z,97532.97
2022-12-18T17:25:37.850Z,97530.31
2022-12-18T17:28:04.242Z,97534.34
2022-12-18T17:30:31.052Z,97547.19
2022-12-18T17:32:57.422Z,97558.59
2022-12-18T17:35:23.799Z,97553.31
2022-12-18T17:37:50.166Z,97555.81
2022-12-18T17:40:16.556Z,97548.13
2022-12-18T17:42:42.951Z,97558.91
2022-12-18T17:45:09.343Z,97562.22
2022-12-18T17:47:35.738Z,97558.00
2022-12-18T17:50:02.138Z,97555.03
2022-12-18T17:52:28.514Z,97552.19
2022-12-18T17:54:54.903Z,97549.06
2022-12-18T17:57:21.307Z,97549.84
2022-12-18T17:59:49.672Z,97537.63
2022-12-18T18:02:16.222Z,97539.69
2022-12-18T18:04:42.698Z,97545.31
2022-12-18T18:07:09.086Z,97550.63
2022-12-18T18:09:35.541Z,97538.09
2022-12-18T18:12:01.934Z,97536.22
2022-12-18T18:14:28.374Z,97544.22
2022-12-18T18:16:54.774Z,97550.47
2022-12-18T18:19:22.458Z,97542.66
2022-12-18T18:21:48.854Z,97537.66
2022-12-18T18:24:15.680Z,97542.81
2022-12-18T18:26:42.089Z,97550.78
2022-12-18T18:29:08.505Z,97552.50
2022-12-18T18:31:38.234Z,97559.38
2022-12-18T18:34:07.495Z,97562.69
2022-12-18T18:36:34.557Z,97566.44
2022-12-18T18:39:01.313Z,97561.56
2022-12-18T18:41:27.689Z,97565.00
2022-12-18T18:43:54.069Z,97565.34
2022-12-18T18:46:20.501Z,97564.22
2022-12-18T18:48:46.907Z,97561.91
2022-12-18T18:51:15.585Z,97568.63
2022-12-18T18:53:48.051Z,97555.63
2022-12-18T18:56:45.499Z,97551.44
2022-12-18T18:59:00.854Z,97562.53
2022-12-18T19:01:27.374Z,97569.88
2022-12-18T19:03:53.776Z,97576.00
2022-12-18T19:06:20.198Z,97574.13
2022-12-18T19:08:46.598Z,97569.41
2022-12-18T19:11:12.993Z,97574.59
2022-12-18T19:13:39.661Z,97579.75
2022-12-18T19:16:06.459Z,97567.66
